sensor_id;sensor_type;location;lat;lon;timestamp;pressure;altitude;pressure_sealevel;temperature;humidity
62436;BME280;48480;50.252;18.848;2023-07-09T00:01:29;99106.38;;;17.58;59.63
62436;BME280;48480;50.252;18.848;2023-07-09T00:04:14;99104.27;;;17.54;59.54
62436;BME280;48480;50.252;18.848;2023-07-09T00:07:02;99107.45;;;17.52;59.88
62436;BME280;48480;50.252;18.848;2023-07-09T00:09:47;99113.23;;;17.45;60.07
62436;BME280;48480;50.252;18.848;2023-07-09T00:12:31;99108.51;;;17.39;60.39
62436;BME280;48480;50.252;18.848;2023-07-09T00:15:16;99105.32;;;17.33;60.43
62436;BME280;48480;50.252;18.848;2023-07-09T00:18:00;99105.69;;;17.30;60.43
62436;BME280;48480;50.252;18.848;2023-07-09T00:20:44;99103.60;;;17.27;60.43
62436;BME280;48480;50.252;18.848;2023-07-09T00:23:32;99102.98;;;17.27;60.46
62436;BME280;48480;50.252;18.848;2023-07-09T00:26:18;99103.68;;;17.30;60.41
62436;BME280;48480;50.252;18.848;2023-07-09T00:29:09;99106.88;;;17.34;60.38
62436;BME280;48480;50.252;18.848;2023-07-09T00:31:54;99105.17;;;17.36;60.39
62436;BME280;48480;50.252;18.848;2023-07-09T00:34:38;99104.08;;;17.36;60.53
62436;BME280;48480;50.252;18.848;2023-07-09T00:37:25;99105.70;;;17.36;60.57
62436;BME280;48480;50.252;18.848;2023-07-09T00:40:21;99103.13;;;17.33;60.56
62436;BME280;48480;50.252;18.848;2023-07-09T00:43:13;99103.94;;;17.28;60.83
62436;BME280;48480;50.252;18.848;2023-07-09T00:49:09;99097.63;;;17.16;61.04
62436;BME280;48480;50.252;18.848;2023-07-09T00:51:54;99098.03;;;17.14;61.10
62436;BME280;48480;50.252;18.848;2023-07-09T00:54:43;99094.29;;;17.13;61.22
62436;BME280;48480;50.252;18.848;2023-07-09T00:57:30;99096.67;;;17.07;61.37
62436;BME280;48480;50.252;18.848;2023-07-09T01:00:14;99094.52;;;17.02;61.41
62436;BME280;48480;50.252;18.848;2023-07-09T01:03:02;99094.61;;;16.98;61.52
62436;BME280;48480;50.252;18.848;2023-07-09T01:05:48;99091.52;;;16.96;61.72
62436;BME280;48480;50.252;18.848;2023-07-09T01:08:38;99084.88;;;16.95;61.69
62436;BME280;48480;50.252;18.848;2023-07-09T01:11:25;99090.71;;;16.94;61.66
62436;BME280;48480;50.252;18.848;2023-07-09T01:14:12;99087.02;;;16.94;61.35
62436;BME280;48480;50.252;18.848;2023-07-09T01:17:01;99095.38;;;16.89;60.99
62436;BME280;48480;50.252;18.848;2023-07-09T01:19:49;99094.42;;;16.81;61.07
62436;BME280;48480;50.252;18.848;2023-07-09T01:22:34;99089.55;;;16.71;61.31
62436;BME280;48480;50.252;18.848;2023-07-09T01:25:21;99095.34;;;16.66;61.30
62436;BME280;48480;50.252;18.848;2023-07-09T01:28:05;99094.56;;;16.64;61.32
62436;BME280;48480;50.252;18.848;2023-07-09T01:30:50;99094.64;;;16.58;61.27
62436;BME280;48480;50.252;18.848;2023-07-09T01:33:41;99098.44;;;16.53;61.14
62436;BME280;48480;50.252;18.848;2023-07-09T01:36:28;99095.33;;;16.50;61.22
62436;BME280;48480;50.252;18.848;2023-07-09T01:39:12;99094.67;;;16.39;61.44
62436;BME280;48480;50.252;18.848;2023-07-09T01:41:56;99101.59;;;16.28;61.81
62436;BME280;48480;50.252;18.848;2023-07-09T01:44:40;99106.46;;;16.21;62.16
62436;BME280;48480;50.252;18.848;2023-07-09T01:47:24;99107.06;;;16.21;62.62
62436;BME280;48480;50.252;18.848;2023-07-09T01:50:09;99111.73;;;16.24;62.92
62436;BME280;48480;50.252;18.848;2023-07-09T01:52:54;99111.59;;;16.29;63.02
62436;BME280;48480;50.252;18.848;2023-07-09T01:55:39;99111.33;;;16.30;63.12
62436;BME280;48480;50.252;18.848;2023-07-09T01:58:23;99108.65;;;16.29;63.24
62436;BME280;48480;50.252;18.848;2023-07-09T02:01:09;99110.86;;;16.28;63.23
62436;BME280;48480;50.252;18.848;2023-07-09T02:03:53;99106.80;;;16.24;63.38
62436;BME280;48480;50.252;18.848;2023-07-09T02:06:37;99111.82;;;16.20;63.76
62436;BME280;48480;50.252;18.848;2023-07-09T02:09:21;99112.92;;;16.15;64.03
62436;BME280;48480;50.252;18.848;2023-07-09T02:12:06;99112.71;;;16.11;64.27
62436;BME280;48480;50.252;18.848;2023-07-09T02:14:51;99115.42;;;16.09;64.37
62436;BME280;48480;50.252;18.848;2023-07-09T02:17:35;99112.39;;;16.08;64.30
62436;BME280;48480;50.252;18.848;2023-07-09T02:20:19;99117.13;;;16.07;64.14
62436;BME280;48480;50.252;18.848;2023-07-09T02:23:05;99118.89;;;16.02;64.09
62436;BME280;48480;50.252;18.848;2023-07-09T02:25:49;99120.25;;;15.98;64.11
62436;BME280;48480;50.252;18.848;2023-07-09T02:28:34;99114.33;;;16.00;64.10
62436;BME280;48480;50.252;18.848;2023-07-09T02:31:18;99115.38;;;16.03;64.16
62436;BME280;48480;50.252;18.848;2023-07-09T02:34:03;99115.35;;;16.05;64.18
62436;BME280;48480;50.252;18.848;2023-07-09T02:36:47;99116.19;;;16.04;64.22
62436;BME280;48480;50.252;18.848;2023-07-09T02:39:31;99117.20;;;16.02;64.36
62436;BME280;48480;50.252;18.848;2023-07-09T02:42:17;99121.80;;;16.01;64.72
62436;BME280;48480;50.252;18.848;2023-07-09T02:45:03;99119.92;;;15.95;64.94
62436;BME280;48480;50.252;18.848;2023-07-09T02:47:48;99122.27;;;15.94;65.05
62436;BME280;48480;50.252;18.848;2023-07-09T02:50:33;99120.77;;;15.91;65.15
62436;BME280;48480;50.252;18.848;2023-07-09T02:53:17;99118.30;;;15.89;65.27
62436;BME280;48480;50.252;18.848;2023-07-09T02:56:01;99120.58;;;15.83;65.50
62436;BME280;48480;50.252;18.848;2023-07-09T02:58:45;99122.00;;;15.79;65.66
62436;BME280;48480;50.252;18.848;2023-07-09T03:01:30;99120.95;;;15.76;65.78
62436;BME280;48480;50.252;18.848;2023-07-09T03:04:15;99123.79;;;15.78;66.06
62436;BME280;48480;50.252;18.848;2023-07-09T03:07:02;99125.02;;;15.82;66.21
62436;BME280;48480;50.252;18.848;2023-07-09T03:09:46;99125.48;;;15.84;66.30
62436;BME280;48480;50.252;18.848;2023-07-09T03:12:30;99129.41;;;15.86;66.70
62436;BME280;48480;50.252;18.848;2023-07-09T03:15:14;99129.13;;;15.89;66.60
62436;BME280;48480;50.252;18.848;2023-07-09T03:17:58;99127.52;;;15.96;66.21
62436;BME280;48480;50.252;18.848;2023-07-09T03:20:42;99129.31;;;16.04;66.19
62436;BME280;48480;50.252;18.848;2023-07-09T03:23:27;99136.77;;;16.07;66.21
62436;BME280;48480;50.252;18.848;2023-07-09T03:26:11;99141.89;;;16.10;66.19
62436;BME280;48480;50.252;18.848;2023-07-09T03:28:55;99137.97;;;16.10;66.03
62436;BME280;48480;50.252;18.848;2023-07-09T03:31:39;99132.33;;;16.11;66.03
62436;BME280;48480;50.252;18.848;2023-07-09T03:34:24;99136.72;;;16.12;66.07
62436;BME280;48480;50.252;18.848;2023-07-09T03:37:08;99141.63;;;16.14;66.20
62436;BME280;48480;50.252;18.848;2023-07-09T03:39:53;99141.61;;;16.11;66.33
62436;BME280;48480;50.252;18.848;2023-07-09T03:42:37;99140.23;;;16.18;66.05
62436;BME280;48480;50.252;18.848;2023-07-09T03:45:21;99138.48;;;16.31;65.83
62436;BME280;48480;50.252;18.848;2023-07-09T03:48:05;99143.92;;;16.41;65.89
62436;BME280;48480;50.252;18.848;2023-07-09T03:50:50;99137.27;;;16.41;66.15
62436;BME280;48480;50.252;18.848;2023-07-09T03:53:34;99137.56;;;16.43;66.28
62436;BME280;48480;50.252;18.848;2023-07-09T03:56:18;99132.88;;;16.51;66.32
62436;BME280;48480;50.252;18.848;2023-07-09T03:59:02;99131.06;;;16.58;66.41
62436;BME280;48480;50.252;18.848;2023-07-09T04:01:46;99133.50;;;16.61;66.53
62436;BME280;48480;50.252;18.848;2023-07-09T04:04:30;99134.25;;;16.70;66.42
62436;BME280;48480;50.252;18.848;2023-07-09T04:07:15;99134.80;;;16.78;66.90
62436;BME280;48480;50.252;18.848;2023-07-09T04:10:00;99131.05;;;16.82;67.08
62436;BME280;48480;50.252;18.848;2023-07-09T04:12:44;99135.34;;;16.92;66.72
62436;BME280;48480;50.252;18.848;2023-07-09T04:15:29;99131.84;;;17.05;66.13
62436;BME280;48480;50.252;18.848;2023-07-09T04:18:13;99140.45;;;17.24;65.83
62436;BME280;48480;50.252;18.848;2023-07-09T04:20:57;99139.01;;;17.39;65.66
62436;BME280;48480;50.252;18.848;2023-07-09T04:23:41;99137.60;;;17.49;65.27
62436;BME280;48480;50.252;18.848;2023-07-09T04:26:26;99127.69;;;17.52;65.17
62436;BME280;48480;50.252;18.848;2023-07-09T04:29:12;99135.09;;;17.65;65.08
62436;BME280;48480;50.252;18.848;2023-07-09T04:31:56;99137.54;;;17.69;64.87
62436;BME280;48480;50.252;18.848;2023-07-09T04:34:41;99138.96;;;17.76;64.82
62436;BME280;48480;50.252;18.848;2023-07-09T04:37:25;99142.07;;;17.82;65.04
62436;BME280;48480;50.252;18.848;2023-07-09T04:40:11;99143.21;;;17.89;65.35
62436;BME280;48480;50.252;18.848;2023-07-09T04:42:55;99144.39;;;18.55;64.16
62436;BME280;48480;50.252;18.848;2023-07-09T04:45:39;99145.14;;;20.24;60.80
62436;BME280;48480;50.252;18.848;2023-07-09T04:48:24;99143.70;;;21.88;57.74
62436;BME280;48480;50.252;18.848;2023-07-09T04:51:08;99143.66;;;23.35;54.28
62436;BME280;48480;50.252;18.848;2023-07-09T04:53:53;99138.28;;;24.63;50.84
62436;BME280;48480;50.252;18.848;2023-07-09T04:56:37;99146.19;;;25.91;47.88
62436;BME280;48480;50.252;18.848;2023-07-09T04:59:22;99143.52;;;27.02;45.06
62436;BME280;48480;50.252;18.848;2023-07-09T05:02:06;99147.13;;;27.99;42.37
62436;BME280;48480;50.252;18.848;2023-07-09T05:04:51;99150.82;;;28.79;40.20
62436;BME280;48480;50.252;18.848;2023-07-09T05:07:35;99151.14;;;29.50;38.43
62436;BME280;48480;50.252;18.848;2023-07-09T05:10:20;99149.21;;;30.06;36.76
62436;BME280;48480;50.252;18.848;2023-07-09T05:13:04;99151.90;;;30.57;35.61
62436;BME280;48480;50.252;18.848;2023-07-09T05:15:49;99153.00;;;30.96;34.73
62436;BME280;48480;50.252;18.848;2023-07-09T05:18:34;99154.70;;;31.31;34.46
62436;BME280;48480;50.252;18.848;2023-07-09T05:21:18;99155.92;;;31.54;33.81
62436;BME280;48480;50.252;18.848;2023-07-09T05:24:03;99160.98;;;31.63;32.54
62436;BME280;48480;50.252;18.848;2023-07-09T05:26:47;99163.04;;;31.76;32.26
62436;BME280;48480;50.252;18.848;2023-07-09T05:29:31;99167.23;;;31.92;32.50
62436;BME280;48480;50.252;18.848;2023-07-09T05:32:15;99166.55;;;32.01;31.98
62436;BME280;48480;50.252;18.848;2023-07-09T05:34:59;99164.23;;;32.08;31.75
62436;BME280;48480;50.252;18.848;2023-07-09T05:37:43;99165.17;;;32.11;31.57
62436;BME280;48480;50.252;18.848;2023-07-09T05:40:27;99167.80;;;32.08;31.50
62436;BME280;48480;50.252;18.848;2023-07-09T05:43:11;99167.59;;;32.02;31.27
62436;BME280;48480;50.252;18.848;2023-07-09T05:45:56;99172.14;;;31.90;31.33
62436;BME280;48480;50.252;18.848;2023-07-09T05:48:40;99174.92;;;31.74;31.31
62436;BME280;48480;50.252;18.848;2023-07-09T05:51:25;99176.08;;;31.67;31.31
62436;BME280;48480;50.252;18.848;2023-07-09T05:54:10;99176.48;;;31.72;31.02
62436;BME280;48480;50.252;18.848;2023-07-09T05:56:56;99177.10;;;31.75;30.78
62436;BME280;48480;50.252;18.848;2023-07-09T05:59:41;99176.36;;;31.76;30.53
62436;BME280;48480;50.252;18.848;2023-07-09T06:02:27;99173.69;;;31.60;30.48
62436;BME280;48480;50.252;18.848;2023-07-09T06:05:14;99175.67;;;31.49;30.64
62436;BME280;48480;50.252;18.848;2023-07-09T06:08:00;99175.90;;;31.49;30.43
62436;BME280;48480;50.252;18.848;2023-07-09T06:11:02;99174.98;;;31.45;30.26
62436;BME280;48480;50.252;18.848;2023-07-09T06:13:47;99163.19;;;31.39;30.06
62436;BME280;48480;50.252;18.848;2023-07-09T06:16:34;99177.02;;;31.59;30.29
62436;BME280;48480;50.252;18.848;2023-07-09T06:19:18;99176.95;;;31.73;30.00
62436;BME280;48480;50.252;18.848;2023-07-09T06:22:03;99178.79;;;31.90;29.89
62436;BME280;48480;50.252;18.848;2023-07-09T06:24:47;99179.05;;;31.97;29.70
62436;BME280;48480;50.252;18.848;2023-07-09T06:27:32;99181.73;;;32.04;29.73
62436;BME280;48480;50.252;18.848;2023-07-09T06:30:16;99175.54;;;32.09;29.74
62436;BME280;48480;50.252;18.848;2023-07-09T06:33:02;99183.00;;;32.19;29.43
62436;BME280;48480;50.252;18.848;2023-07-09T06:35:50;99178.01;;;32.22;29.38
62436;BME280;48480;50.252;18.848;2023-07-09T06:38:35;99176.98;;;32.36;29.24
62436;BME280;48480;50.252;18.848;2023-07-09T06:41:19;99180.78;;;32.43;29.02
62436;BME280;48480;50.252;18.848;2023-07-09T06:44:06;99183.90;;;32.55;28.74
62436;BME280;48480;50.252;18.848;2023-07-09T06:46:51;99181.37;;;32.60;28.45
62436;BME280;48480;50.252;18.848;2023-07-09T06:49:35;99179.15;;;32.57;28.23
62436;BME280;48480;50.252;18.848;2023-07-09T06:52:19;99178.41;;;32.55;28.36
62436;BME280;48480;50.252;18.848;2023-07-09T06:55:04;99175.73;;;32.55;28.57
62436;BME280;48480;50.252;18.848;2023-07-09T06:57:48;99176.06;;;32.49;28.73
62436;BME280;48480;50.252;18.848;2023-07-09T07:00:34;99176.22;;;32.49;28.90
62436;BME280;48480;50.252;18.848;2023-07-09T07:03:19;99178.77;;;32.57;28.87
62436;BME280;48480;50.252;18.848;2023-07-09T07:06:04;99176.48;;;32.71;28.44
62436;BME280;48480;50.252;18.848;2023-07-09T07:08:50;99172.49;;;32.74;28.10
62436;BME280;48480;50.252;18.848;2023-07-09T07:11:34;99175.02;;;32.95;27.82
62436;BME280;48480;50.252;18.848;2023-07-09T07:14:18;99175.63;;;33.09;27.23
62436;BME280;48480;50.252;18.848;2023-07-09T07:17:02;99175.91;;;33.33;26.81
62436;BME280;48480;50.252;18.848;2023-07-09T07:19:46;99176.39;;;33.50;27.13
62436;BME280;48480;50.252;18.848;2023-07-09T07:22:30;99172.89;;;33.54;26.60
62436;BME280;48480;50.252;18.848;2023-07-09T07:25:15;99168.67;;;33.61;26.55
62436;BME280;48480;50.252;18.848;2023-07-09T07:28:00;99170.42;;;33.74;26.09
62436;BME280;48480;50.252;18.848;2023-07-09T07:30:44;99168.08;;;33.67;26.77
62436;BME280;48480;50.252;18.848;2023-07-09T07:33:28;99166.66;;;33.67;26.96
62436;BME280;48480;50.252;18.848;2023-07-09T07:36:13;99165.31;;;33.62;27.33
62436;BME280;48480;50.252;18.848;2023-07-09T07:38:57;99166.13;;;33.53;27.68
62436;BME280;48480;50.252;18.848;2023-07-09T07:41:41;99170.23;;;33.47;27.23
62436;BME280;48480;50.252;18.848;2023-07-09T07:44:25;99170.79;;;33.60;27.41
62436;BME280;48480;50.252;18.848;2023-07-09T07:47:09;99168.29;;;33.74;27.39
62436;BME280;48480;50.252;18.848;2023-07-09T07:49:54;99164.42;;;33.82;27.51
62436;BME280;48480;50.252;18.848;2023-07-09T07:52:38;99165.17;;;33.95;27.71
62436;BME280;48480;50.252;18.848;2023-07-09T07:55:22;99168.72;;;34.10;27.63
62436;BME280;48480;50.252;18.848;2023-07-09T07:58:08;99169.56;;;34.25;27.51
62436;BME280;48480;50.252;18.848;2023-07-09T08:00:57;99167.80;;;34.41;27.23
62436;BME280;48480;50.252;18.848;2023-07-09T08:03:41;99169.00;;;34.72;27.44
62436;BME280;48480;50.252;18.848;2023-07-09T08:06:27;99167.88;;;34.85;26.66
62436;BME280;48480;50.252;18.848;2023-07-09T08:09:12;99168.71;;;34.90;26.80
62436;BME280;48480;50.252;18.848;2023-07-09T08:11:56;99169.67;;;34.90;26.73
62436;BME280;48480;50.252;18.848;2023-07-09T08:14:41;99171.02;;;35.01;26.54
62436;BME280;48480;50.252;18.848;2023-07-09T08:17:26;99165.77;;;35.04;25.65
62436;BME280;48480;50.252;18.848;2023-07-09T08:20:10;99164.48;;;35.01;25.67
62436;BME280;48480;50.252;18.848;2023-07-09T08:22:54;99164.69;;;35.07;25.88
62436;BME280;48480;50.252;18.848;2023-07-09T08:25:38;99160.45;;;35.06;25.64
62436;BME280;48480;50.252;18.848;2023-07-09T08:28:23;99154.58;;;35.02;25.59
62436;BME280;48480;50.252;18.848;2023-07-09T08:31:08;99159.17;;;35.07;25.27
62436;BME280;48480;50.252;18.848;2023-07-09T08:33:52;99122.85;;;34.79;25.02
62436;BME280;48480;50.252;18.848;2023-07-09T08:36:36;99156.06;;;34.97;24.98
62436;BME280;48480;50.252;18.848;2023-07-09T08:39:21;99148.17;;;35.03;25.35
62436;BME280;48480;50.252;18.848;2023-07-09T08:42:16;99151.78;;;35.05;25.28
62436;BME280;48480;50.252;18.848;2023-07-09T08:45:10;99142.34;;;35.14;24.59
62436;BME280;48480;50.252;18.848;2023-07-09T08:48:06;99139.61;;;35.16;24.15
62436;BME280;48480;50.252;18.848;2023-07-09T08:50:58;99146.84;;;35.31;24.18
62436;BME280;48480;50.252;18.848;2023-07-09T08:54:04;99144.00;;;35.39;24.12
62436;BME280;48480;50.252;18.848;2023-07-09T08:56:55;99148.35;;;35.49;23.00
62436;BME280;48480;50.252;18.848;2023-07-09T08:59:42;99147.06;;;35.42;23.08
62436;BME280;48480;50.252;18.848;2023-07-09T09:02:44;99144.81;;;35.39;23.27
62436;BME280;48480;50.252;18.848;2023-07-09T09:05:33;99143.55;;;35.46;23.33
62436;BME280;48480;50.252;18.848;2023-07-09T09:17:02;99140.02;;;35.65;21.63
62436;BME280;48480;50.252;18.848;2023-07-09T09:22:49;99138.80;;;35.83;21.25
62436;BME280;48480;50.252;18.848;2023-07-09T09:25:37;99139.05;;;35.83;21.03
62436;BME280;48480;50.252;18.848;2023-07-09T09:28:24;99134.12;;;35.82;20.67
62436;BME280;48480;50.252;18.848;2023-07-09T09:31:11;99134.06;;;35.82;20.57
62436;BME280;48480;50.252;18.848;2023-07-09T09:33:55;99137.81;;;35.89;21.21
62436;BME280;48480;50.252;18.848;2023-07-09T09:36:41;99138.65;;;35.93;20.53
62436;BME280;48480;50.252;18.848;2023-07-09T09:39:26;99133.34;;;35.87;20.24
62436;BME280;48480;50.252;18.848;2023-07-09T09:42:11;99129.13;;;35.93;20.48
62436;BME280;48480;50.252;18.848;2023-07-09T09:44:56;99132.89;;;35.98;20.38
62436;BME280;48480;50.252;18.848;2023-07-09T09:47:40;99134.08;;;36.03;20.05
62436;BME280;48480;50.252;18.848;2023-07-09T09:50:30;99131.38;;;36.05;20.19
62436;BME280;48480;50.252;18.848;2023-07-09T09:53:22;99139.23;;;36.16;19.81
62436;BME280;48480;50.252;18.848;2023-07-09T09:56:14;99134.14;;;36.27;18.67
62436;BME280;48480;50.252;18.848;2023-07-09T09:58:59;99139.20;;;36.37;18.72
62436;BME280;48480;50.252;18.848;2023-07-09T10:01:43;99130.14;;;36.20;18.29
62436;BME280;48480;50.252;18.848;2023-07-09T10:04:27;99135.30;;;35.89;17.95
62436;BME280;48480;50.252;18.848;2023-07-09T10:07:22;99139.64;;;35.44;18.76
62436;BME280;48480;50.252;18.848;2023-07-09T10:10:15;99143.03;;;34.89;19.96
62436;BME280;48480;50.252;18.848;2023-07-09T10:13:28;99142.29;;;34.84;20.03
62436;BME280;48480;50.252;18.848;2023-07-09T10:19:24;99141.80;;;35.01;19.28
62436;BME280;48480;50.252;18.848;2023-07-09T10:26:03;99143.15;;;34.96;18.98
62436;BME280;48480;50.252;18.848;2023-07-09T10:35:32;99142.08;;;34.82;19.56
62436;BME280;48480;50.252;18.848;2023-07-09T10:41:26;99131.90;;;34.55;19.35
62436;BME280;48480;50.252;18.848;2023-07-09T10:44:31;99133.92;;;34.52;20.12
62436;BME280;48480;50.252;18.848;2023-07-09T10:50:31;99130.59;;;34.93;19.49
62436;BME280;48480;50.252;18.848;2023-07-09T10:56:39;99129.42;;;35.25;20.06
62436;BME280;48480;50.252;18.848;2023-07-09T10:59:36;99127.13;;;35.21;19.50
62436;BME280;48480;50.252;18.848;2023-07-09T11:02:29;99119.52;;;35.27;19.57
62436;BME280;48480;50.252;18.848;2023-07-09T11:05:14;99111.15;;;35.42;19.55
62436;BME280;48480;50.252;18.848;2023-07-09T11:08:06;99114.04;;;35.39;20.24
62436;BME280;48480;50.252;18.848;2023-07-09T11:11:00;99113.97;;;35.30;20.09
62436;BME280;48480;50.252;18.848;2023-07-09T11:13:53;99117.46;;;35.09;20.02
62436;BME280;48480;50.252;18.848;2023-07-09T11:16:42;99117.20;;;34.97;19.81
62436;BME280;48480;50.252;18.848;2023-07-09T11:19:29;99119.23;;;35.05;19.63
62436;BME280;48480;50.252;18.848;2023-07-09T11:22:25;99119.23;;;35.12;19.69
62436;BME280;48480;50.252;18.848;2023-07-09T11:25:14;99116.16;;;35.19;19.13
62436;BME280;48480;50.252;18.848;2023-07-09T11:28:10;99112.29;;;35.20;19.49
62436;BME280;48480;50.252;18.848;2023-07-09T11:31:05;99107.92;;;35.18;19.27
62436;BME280;48480;50.252;18.848;2023-07-09T11:34:10;99102.38;;;35.19;19.24
62436;BME280;48480;50.252;18.848;2023-07-09T11:37:01;99104.92;;;35.04;19.73
62436;BME280;48480;50.252;18.848;2023-07-09T11:39:48;99111.73;;;34.82;19.68
62436;BME280;48480;50.252;18.848;2023-07-09T11:42:33;99115.05;;;34.54;20.09
62436;BME280;48480;50.252;18.848;2023-07-09T11:45:26;99111.73;;;34.50;20.20
62436;BME280;48480;50.252;18.848;2023-07-09T11:48:26;99110.77;;;34.63;20.31
62436;BME280;48480;50.252;18.848;2023-07-09T11:51:36;99109.27;;;34.71;20.08
62436;BME280;48480;50.252;18.848;2023-07-09T11:54:24;99108.20;;;34.67;19.88
62436;BME280;48480;50.252;18.848;2023-07-09T11:57:11;99105.25;;;34.59;19.85
62436;BME280;48480;50.252;18.848;2023-07-09T12:00:01;99103.65;;;34.45;20.48
62436;BME280;48480;50.252;18.848;2023-07-09T12:02:46;99096.39;;;34.25;19.94
62436;BME280;48480;50.252;18.848;2023-07-09T12:05:30;99098.32;;;34.06;20.61
62436;BME280;48480;50.252;18.848;2023-07-09T12:08:15;99095.98;;;34.03;20.75
62436;BME280;48480;50.252;18.848;2023-07-09T12:11:00;99096.09;;;34.01;20.41
62436;BME280;48480;50.252;18.848;2023-07-09T12:13:46;99091.65;;;33.98;20.26
62436;BME280;48480;50.252;18.848;2023-07-09T12:16:35;99088.71;;;33.85;20.55
62436;BME280;48480;50.252;18.848;2023-07-09T12:19:24;99080.04;;;33.72;20.58
62436;BME280;48480;50.252;18.848;2023-07-09T12:22:19;99074.02;;;33.72;20.82
62436;BME280;48480;50.252;18.848;2023-07-09T12:25:18;99067.11;;;33.73;20.68
62436;BME280;48480;50.252;18.848;2023-07-09T12:28:04;99060.71;;;33.69;21.08
62436;BME280;48480;50.252;18.848;2023-07-09T12:30:50;99069.52;;;33.59;21.48
62436;BME280;48480;50.252;18.848;2023-07-09T12:33:34;99069.44;;;33.53;21.81
62436;BME280;48480;50.252;18.848;2023-07-09T12:36:21;99062.81;;;33.37;21.85
62436;BME280;48480;50.252;18.848;2023-07-09T12:39:10;99057.60;;;33.22;22.29
62436;BME280;48480;50.252;18.848;2023-07-09T12:42:00;99061.38;;;33.14;22.47
62436;BME280;48480;50.252;18.848;2023-07-09T12:44:46;99060.53;;;33.05;22.21
62436;BME280;48480;50.252;18.848;2023-07-09T12:47:32;99053.38;;;32.98;22.39
62436;BME280;48480;50.252;18.848;2023-07-09T12:50:33;99053.10;;;32.92;22.33
62436;BME280;48480;50.252;18.848;2023-07-09T12:53:20;99054.83;;;32.91;21.79
62436;BME280;48480;50.252;18.848;2023-07-09T12:56:13;99056.42;;;32.91;22.07
62436;BME280;48480;50.252;18.848;2023-07-09T12:58:58;99035.36;;;32.74;21.81
62436;BME280;48480;50.252;18.848;2023-07-09T13:01:42;99053.71;;;32.87;22.13
62436;BME280;48480;50.252;18.848;2023-07-09T13:04:33;99048.84;;;32.83;22.00
62436;BME280;48480;50.252;18.848;2023-07-09T13:10:16;99046.98;;;32.87;22.36
62436;BME280;48480;50.252;18.848;2023-07-09T13:13:03;99047.92;;;32.89;21.99
62436;BME280;48480;50.252;18.848;2023-07-09T13:15:51;99043.27;;;32.82;21.59
62436;BME280;48480;50.252;18.848;2023-07-09T13:18:40;99043.97;;;32.78;21.77
62436;BME280;48480;50.252;18.848;2023-07-09T13:21:36;99037.20;;;32.76;21.58
62436;BME280;48480;50.252;18.848;2023-07-09T13:24:25;99035.77;;;32.80;21.82
62436;BME280;48480;50.252;18.848;2023-07-09T13:27:13;99037.95;;;32.82;21.64
62436;BME280;48480;50.252;18.848;2023-07-09T13:30:00;99036.43;;;32.86;21.25
62436;BME280;48480;50.252;18.848;2023-07-09T13:32:46;99033.52;;;32.88;21.26
62436;BME280;48480;50.252;18.848;2023-07-09T13:35:32;99030.57;;;32.88;21.22
62436;BME280;48480;50.252;18.848;2023-07-09T13:38:18;99034.86;;;32.88;21.45
62436;BME280;48480;50.252;18.848;2023-07-09T13:41:14;99019.30;;;32.68;21.86
62436;BME280;48480;50.252;18.848;2023-07-09T13:43:59;99027.77;;;32.65;21.69
62436;BME280;48480;50.252;18.848;2023-07-09T13:46:44;99027.27;;;32.59;21.90
62436;BME280;48480;50.252;18.848;2023-07-09T13:49:28;99023.93;;;32.59;21.98
62436;BME280;48480;50.252;18.848;2023-07-09T13:52:16;99023.98;;;32.62;21.58
62436;BME280;48480;50.252;18.848;2023-07-09T13:55:01;99024.92;;;32.64;21.37
62436;BME280;48480;50.252;18.848;2023-07-09T13:57:48;99020.34;;;32.62;21.24
62436;BME280;48480;50.252;18.848;2023-07-09T14:00:32;99021.02;;;32.53;21.55
62436;BME280;48480;50.252;18.848;2023-07-09T14:03:24;99018.46;;;32.53;21.33
62436;BME280;48480;50.252;18.848;2023-07-09T14:06:11;99018.55;;;32.53;21.15
62436;BME280;48480;50.252;18.848;2023-07-09T14:08:56;99023.14;;;32.51;21.23
62436;BME280;48480;50.252;18.848;2023-07-09T14:11:51;99025.25;;;32.52;21.25
62436;BME280;48480;50.252;18.848;2023-07-09T14:14:35;99015.36;;;32.47;21.02
62436;BME280;48480;50.252;18.848;2023-07-09T14:17:19;99021.60;;;32.43;21.14
62436;BME280;48480;50.252;18.848;2023-07-09T14:20:08;99015.26;;;32.41;21.43
62436;BME280;48480;50.252;18.848;2023-07-09T14:22:53;99022.75;;;32.45;21.25
62436;BME280;48480;50.252;18.848;2023-07-09T14:25:37;99016.95;;;32.49;21.46
62436;BME280;48480;50.252;18.848;2023-07-09T14:28:22;99021.79;;;32.54;21.75
62436;BME280;48480;50.252;18.848;2023-07-09T14:31:19;99019.08;;;32.57;21.39
62436;BME280;48480;50.252;18.848;2023-07-09T14:34:20;99014.17;;;32.53;21.15
62436;BME280;48480;50.252;18.848;2023-07-09T14:37:07;99015.63;;;32.50;21.68
62436;BME280;48480;50.252;18.848;2023-07-09T14:39:52;99009.59;;;32.47;21.13
62436;BME280;48480;50.252;18.848;2023-07-09T14:42:40;99006.52;;;32.45;21.38
62436;BME280;48480;50.252;18.848;2023-07-09T14:45:26;99007.87;;;32.46;22.04
62436;BME280;48480;50.252;18.848;2023-07-09T14:48:18;99004.95;;;32.48;22.01
62436;BME280;48480;50.252;18.848;2023-07-09T14:51:14;99008.67;;;32.52;22.07
62436;BME280;48480;50.252;18.848;2023-07-09T14:54:26;99003.70;;;32.49;21.80
62436;BME280;48480;50.252;18.848;2023-07-09T14:57:19;98998.30;;;32.47;21.73
62436;BME280;48480;50.252;18.848;2023-07-09T15:00:11;98998.69;;;32.45;21.91
62436;BME280;48480;50.252;18.848;2023-07-09T15:02:56;98995.11;;;32.48;22.29
62436;BME280;48480;50.252;18.848;2023-07-09T15:05:40;98992.13;;;32.55;22.14
62436;BME280;48480;50.252;18.848;2023-07-09T15:08:24;98992.81;;;32.59;22.04
62436;BME280;48480;50.252;18.848;2023-07-09T15:11:09;98994.81;;;32.62;22.49
62436;BME280;48480;50.252;18.848;2023-07-09T15:13:54;98992.08;;;32.62;22.35